sensor_id;sensor_type;location;lat;lon;timestamp;temperature;humidity
2174;DHT22;1093;51.424;11.764;2023-04-24T00:00:19;13.90;1.40
2174;DHT22;1093;51.424;11.764;2023-04-24T00:02:46;13.80;1.40
2174;DHT22;1093;51.424;11.764;2023-04-24T00:05:14;13.70;1.40
2174;DHT22;1093;51.424;11.764;2023-04-24T00:07:43;13.70;1.40
2174;DHT22;1093;51.424;11.764;2023-04-24T00:10:11;13.60;1.40
2174;DHT22;1093;51.424;11.764;2023-04-24T00:12:38;13.70;1.40
2174;DHT22;1093;51.424;11.764;2023-04-24T00:15:06;13.60;1.40
2174;DHT22;1093;51.424;11.764;2023-04-24T00:17:34;13.60;1.40
2174;DHT22;1093;51.424;11.764;2023-04-24T00:20:00;13.60;1.40
2174;DHT22;1093;51.424;11.764;2023-04-24T00:22:30;13.50;1.40
2174;DHT22;1093;51.424;11.764;2023-04-24T00:24:57;13.60;1.40
2174;DHT22;1093;51.424;11.764;2023-04-24T00:27:24;13.50;1.40
2174;DHT22;1093;51.424;11.764;2023-04-24T00:29:50;13.50;1.40
2174;DHT22;1093;51.424;11.764;2023-04-24T00:32:17;13.50;1.40
2174;DHT22;1093;51.424;11.764;2023-04-24T00:34:45;13.50;1.40
2174;DHT22;1093;51.424;11.764;2023-04-24T00:37:12;13.50;1.40
2174;DHT22;1093;51.424;11.764;2023-04-24T00:39:39;13.50;1.40
2174;DHT22;1093;51.424;11.764;2023-04-24T00:42:05;13.40;1.40
2174;DHT22;1093;51.424;11.764;2023-04-24T00:44:33;13.40;1.40
2174;DHT22;1093;51.424;11.764;2023-04-24T00:47:01;13.30;1.40
2174;DHT22;1093;51.424;11.764;2023-04-24T00:49:28;13.30;1.40
2174;DHT22;1093;51.424;11.764;2023-04-24T00:51:56;13.20;1.40
2174;DHT22;1093;51.424;11.764;2023-04-24T00:54:24;13.10;1.40
2174;DHT22;1093;51.424;11.764;2023-04-24T00:56:51;13.10;1.40
2174;DHT22;1093;51.424;11.764;2023-04-24T00:59:18;13.00;1.40
2174;DHT22;1093;51.424;11.764;2023-04-24T01:01:45;13.00;1.40
2174;DHT22;1093;51.424;11.764;2023-04-24T01:04:12;12.90;1.40
2174;DHT22;1093;51.424;11.764;2023-04-24T01:06:39;12.90;1.40
2174;DHT22;1093;51.424;11.764;2023-04-24T01:09:08;12.90;1.40
2174;DHT22;1093;51.424;11.764;2023-04-24T01:11:37;12.90;1.40
2174;DHT22;1093;51.424;11.764;2023-04-24T01:14:03;12.90;1.40
2174;DHT22;1093;51.424;11.764;2023-04-24T01:16:30;12.80;1.40
2174;DHT22;1093;51.424;11.764;2023-04-24T01:18:57;12.80;1.40
2174;DHT22;1093;51.424;11.764;2023-04-24T01:21:26;12.80;1.40
2174;DHT22;1093;51.424;11.764;2023-04-24T01:23:55;12.70;1.40
2174;DHT22;1093;51.424;11.764;2023-04-24T01:26:23;12.70;1.40
2174;DHT22;1093;51.424;11.764;2023-04-24T01:28:51;12.70;1.40
2174;DHT22;1093;51.424;11.764;2023-04-24T01:31:17;12.70;1.40
2174;DHT22;1093;51.424;11.764;2023-04-24T01:33:44;12.60;1.40
2174;DHT22;1093;51.424;11.764;2023-04-24T01:36:11;12.50;1.40
2174;DHT22;1093;51.424;11.764;2023-04-24T01:38:38;12.50;1.40
2174;DHT22;1093;51.424;11.764;2023-04-24T01:41:06;12.40;1.40
2174;DHT22;1093;51.424;11.764;2023-04-24T01:43:33;12.30;1.40
2174;DHT22;1093;51.424;11.764;2023-04-24T01:46:00;12.30;1.40
2174;DHT22;1093;51.424;11.764;2023-04-24T01:48:27;12.20;1.40
2174;DHT22;1093;51.424;11.764;2023-04-24T01:50:53;12.20;1.40
2174;DHT22;1093;51.424;11.764;2023-04-24T01:53:20;12.20;1.40
2174;DHT22;1093;51.424;11.764;2023-04-24T01:55:47;12.10;1.40
2174;DHT22;1093;51.424;11.764;2023-04-24T01:58:15;12.10;1.40
2174;DHT22;1093;51.424;11.764;2023-04-24T02:00:42;12.10;1.40
2174;DHT22;1093;51.424;11.764;2023-04-24T02:03:08;12.00;1.40
2174;DHT22;1093;51.424;11.764;2023-04-24T02:05:35;12.00;1.40
2174;DHT22;1093;51.424;11.764;2023-04-24T02:08:01;11.90;1.40
2174;DHT22;1093;51.424;11.764;2023-04-24T02:10:28;11.90;1.40
2174;DHT22;1093;51.424;11.764;2023-04-24T02:12:55;11.90;1.40
2174;DHT22;1093;51.424;11.764;2023-04-24T02:15:23;11.80;1.40
2174;DHT22;1093;51.424;11.764;2023-04-24T02:17:50;11.90;1.40
2174;DHT22;1093;51.424;11.764;2023-04-24T02:20:16;11.90;1.40
2174;DHT22;1093;51.424;11.764;2023-04-24T02:22:43;11.80;1.40
2174;DHT22;1093;51.424;11.764;2023-04-24T02:25:10;11.80;1.40
2174;DHT22;1093;51.424;11.764;2023-04-24T02:27:37;11.80;1.40
2174;DHT22;1093;51.424;11.764;2023-04-24T02:30:05;11.80;1.40
2174;DHT22;1093;51.424;11.764;2023-04-24T02:32:34;11.90;1.40
2174;DHT22;1093;51.424;11.764;2023-04-24T02:35:01;11.90;1.40
2174;DHT22;1093;51.424;11.764;2023-04-24T02:37:27;11.90;1.40
2174;DHT22;1093;51.424;11.764;2023-04-24T02:39:54;11.90;1.40
2174;DHT22;1093;51.424;11.764;2023-04-24T02:42:21;12.00;1.40
2174;DHT22;1093;51.424;11.764;2023-04-24T02:44:48;12.00;1.40
2174;DHT22;1093;51.424;11.764;2023-04-24T02:47:16;12.00;1.40
2174;DHT22;1093;51.424;11.764;2023-04-24T02:49:44;12.00;1.40
2174;DHT22;1093;51.424;11.764;2023-04-24T02:52:11;12.00;1.40
2174;DHT22;1093;51.424;11.764;2023-04-24T02:54:38;12.00;1.40
2174;DHT22;1093;51.424;11.764;2023-04-24T02:57:05;12.00;1.40
2174;DHT22;1093;51.424;11.764;2023-04-24T02:59:31;12.00;1.40
2174;DHT22;1093;51.424;11.764;2023-04-24T03:01:58;11.90;1.40
2174;DHT22;1093;51.424;11.764;2023-04-24T03:04:25;11.90;1.40
2174;DHT22;1093;51.424;11.764;2023-04-24T03:06:53;11.90;1.40
2174;DHT22;1093;51.424;11.764;2023-04-24T03:09:20;11.90;1.40
2174;DHT22;1093;51.424;11.764;2023-04-24T03:11:47;11.90;1.40
2174;DHT22;1093;51.424;11.764;2023-04-24T03:14:14;11.90;1.40
2174;DHT22;1093;51.424;11.764;2023-04-24T03:16:41;11.80;1.40
2174;DHT22;1093;51.424;11.764;2023-04-24T03:19:10;11.80;1.40
2174;DHT22;1093;51.424;11.764;2023-04-24T03:21:37;11.70;1.40
2174;DHT22;1093;51.424;11.764;2023-04-24T03:24:07;11.70;1.40
2174;DHT22;1093;51.424;11.764;2023-04-24T03:26:34;11.70;1.40
2174;DHT22;1093;51.424;11.764;2023-04-24T03:29:00;11.70;1.40
2174;DHT22;1093;51.424;11.764;2023-04-24T03:31:27;11.70;1.40
2174;DHT22;1093;51.424;11.764;2023-04-24T03:33:54;11.60;1.40
2174;DHT22;1093;51.424;11.764;2023-04-24T03:36:21;11.50;1.40
2174;DHT22;1093;51.424;11.764;2023-04-24T03:38:48;11.60;1.40
2174;DHT22;1093;51.424;11.764;2023-04-24T03:41:16;11.50;1.40
2174;DHT22;1093;51.424;11.764;2023-04-24T03:43:43;11.50;1.40
2174;DHT22;1093;51.424;11.764;2023-04-24T03:46:10;11.60;1.40
2174;DHT22;1093;51.424;11.764;2023-04-24T03:48:36;11.50;1.40
2174;DHT22;1093;51.424;11.764;2023-04-24T03:51:03;11.50;1.40
2174;DHT22;1093;51.424;11.764;2023-04-24T03:53:30;11.50;1.40
2174;DHT22;1093;51.424;11.764;2023-04-24T03:55:57;11.50;1.40
2174;DHT22;1093;51.424;11.764;2023-04-24T03:58:25;11.50;1.40
2174;DHT22;1093;51.424;11.764;2023-04-24T04:00:52;11.50;1.40
2174;DHT22;1093;51.424;11.764;2023-04-24T04:03:18;11.50;1.40
2174;DHT22;1093;51.424;11.764;2023-04-24T04:05:46;11.40;1.40
2174;DHT22;1093;51.424;11.764;2023-04-24T04:08:12;11.40;1.40
2174;DHT22;1093;51.424;11.764;2023-04-24T04:10:39;11.40;1.40
2174;DHT22;1093;51.424;11.764;2023-04-24T04:13:06;11.40;1.40
2174;DHT22;1093;51.424;11.764;2023-04-24T04:15:34;11.30;1.40
2174;DHT22;1093;51.424;11.764;2023-04-24T04:18:01;11.40;1.40
2174;DHT22;1093;51.424;11.764;2023-04-24T04:20:27;11.30;1.40
2174;DHT22;1093;51.424;11.764;2023-04-24T04:22:54;11.30;1.40
2174;DHT22;1093;51.424;11.764;2023-04-24T04:25:21;11.30;1.40
2174;DHT22;1093;51.424;11.764;2023-04-24T04:27:48;11.30;1.40
2174;DHT22;1093;51.424;11.764;2023-04-24T04:30:16;11.30;1.40
2174;DHT22;1093;51.424;11.764;2023-04-24T04:32:44;11.30;1.40
2174;DHT22;1093;51.424;11.764;2023-04-24T04:35:11;11.20;1.40
2174;DHT22;1093;51.424;11.764;2023-04-24T04:37:38;11.30;1.40
2174;DHT22;1093;51.424;11.764;2023-04-24T04:40:06;11.30;1.40
2174;DHT22;1093;51.424;11.764;2023-04-24T04:42:37;11.30;1.40
2174;DHT22;1093;51.424;11.764;2023-04-24T04:45:06;11.40;1.40
2174;DHT22;1093;51.424;11.764;2023-04-24T04:47:34;11.50;1.40
2174;DHT22;1093;51.424;11.764;2023-04-24T04:50:03;11.60;1.40
2174;DHT22;1093;51.424;11.764;2023-04-24T04:52:30;11.60;1.40
2174;DHT22;1093;51.424;11.764;2023-04-24T04:54:57;11.70;1.40
2174;DHT22;1093;51.424;11.764;2023-04-24T04:57:24;11.70;1.40
2174;DHT22;1093;51.424;11.764;2023-04-24T04:59:51;11.80;1.40
2174;DHT22;1093;51.424;11.764;2023-04-24T05:02:18;11.80;1.40
2174;DHT22;1093;51.424;11.764;2023-04-24T05:04:44;11.90;1.40
2174;DHT22;1093;51.424;11.764;2023-04-24T05:07:12;11.90;1.40
2174;DHT22;1093;51.424;11.764;2023-04-24T05:09:39;11.90;1.40
2174;DHT22;1093;51.424;11.764;2023-04-24T05:12:06;12.00;1.40
2174;DHT22;1093;51.424;11.764;2023-04-24T05:14:33;12.00;1.40
2174;DHT22;1093;51.424;11.764;2023-04-24T05:17:00;12.00;1.40
2174;DHT22;1093;51.424;11.764;2023-04-24T05:19:26;12.10;1.40
2174;DHT22;1093;51.424;11.764;2023-04-24T05:21:53;12.10;1.40
2174;DHT22;1093;51.424;11.764;2023-04-24T05:24:22;12.10;1.40
2174;DHT22;1093;51.424;11.764;2023-04-24T05:26:48;12.10;1.40
2174;DHT22;1093;51.424;11.764;2023-04-24T05:29:15;12.10;1.40
2174;DHT22;1093;51.424;11.764;2023-04-24T05:31:44;12.10;1.40
2174;DHT22;1093;51.424;11.764;2023-04-24T05:34:11;12.20;1.40
2174;DHT22;1093;51.424;11.764;2023-04-24T05:36:37;12.20;1.40
2174;DHT22;1093;51.424;11.764;2023-04-24T05:39:04;12.30;1.40
2174;DHT22;1093;51.424;11.764;2023-04-24T05:41:32;12.30;1.40
2174;DHT22;1093;51.424;11.764;2023-04-24T05:43:59;12.40;1.40
2174;DHT22;1093;51.424;11.764;2023-04-24T05:46:26;12.50;1.40
2174;DHT22;1093;51.424;11.764;2023-04-24T05:48:52;12.60;1.40
2174;DHT22;1093;51.424;11.764;2023-04-24T05:51:19;12.70;1.40
2174;DHT22;1093;51.424;11.764;2023-04-24T05:53:46;12.70;1.40
2174;DHT22;1093;51.424;11.764;2023-04-24T05:56:13;12.80;1.40
2174;DHT22;1093;51.424;11.764;2023-04-24T05:58:41;13.00;1.40
2174;DHT22;1093;51.424;11.764;2023-04-24T06:01:07;13.00;1.40
2174;DHT22;1093;51.424;11.764;2023-04-24T06:03:34;13.00;1.40
2174;DHT22;1093;51.424;11.764;2023-04-24T06:06:01;13.10;1.40
2174;DHT22;1093;51.424;11.764;2023-04-24T06:08:32;13.10;1.40
2174;DHT22;1093;51.424;11.764;2023-04-24T06:10:59;13.20;1.40
2174;DHT22;1093;51.424;11.764;2023-04-24T06:13:25;13.20;1.40
2174;DHT22;1093;51.424;11.764;2023-04-24T06:15:54;13.20;1.40
2174;DHT22;1093;51.424;11.764;2023-04-24T06:18:20;13.10;1.40
2174;DHT22;1093;51.424;11.764;2023-04-24T06:20:47;13.20;1.40
2174;DHT22;1093;51.424;11.764;2023-04-24T06:23:15;13.20;1.40
2174;DHT22;1093;51.424;11.764;2023-04-24T06:25:41;13.20;1.40
2174;DHT22;1093;51.424;11.764;2023-04-24T06:28:08;13.20;1.40
2174;DHT22;1093;51.424;11.764;2023-04-24T06:30:35;13.30;1.40
2174;DHT22;1093;51.424;11.764;2023-04-24T06:33:03;13.40;1.40
2174;DHT22;1093;51.424;11.764;2023-04-24T06:35:30;13.50;1.40
2174;DHT22;1093;51.424;11.764;2023-04-24T06:37:57;13.60;1.40
2174;DHT22;1093;51.424;11.764;2023-04-24T06:40:23;13.60;1.40
2174;DHT22;1093;51.424;11.764;2023-04-24T06:42:50;13.70;1.40
2174;DHT22;1093;51.424;11.764;2023-04-24T06:45:17;13.80;1.40
2174;DHT22;1093;51.424;11.764;2023-04-24T06:47:44;13.90;1.40
2174;DHT22;1093;51.424;11.764;2023-04-24T06:50:12;14.00;1.40
2174;DHT22;1093;51.424;11.764;2023-04-24T06:52:40;14.10;1.40
2174;DHT22;1093;51.424;11.764;2023-04-24T06:55:08;14.00;1.40
2174;DHT22;1093;51.424;11.764;2023-04-24T06:57:35;14.10;1.40
2174;DHT22;1093;51.424;11.764;2023-04-24T07:00:03;14.20;1.40
2174;DHT22;1093;51.424;11.764;2023-04-24T07:02:30;14.30;1.40
2174;DHT22;1093;51.424;11.764;2023-04-24T07:04:57;14.50;1.40
2174;DHT22;1093;51.424;11.764;2023-04-24T07:07:25;14.50;1.40
2174;DHT22;1093;51.424;11.764;2023-04-24T07:09:51;14.60;1.40
2174;DHT22;1093;51.424;11.764;2023-04-24T07:12:19;14.60;1.40
2174;DHT22;1093;51.424;11.764;2023-04-24T07:14:47;14.70;1.40
2174;DHT22;1093;51.424;11.764;2023-04-24T07:17:14;14.80;1.40
2174;DHT22;1093;51.424;11.764;2023-04-24T07:19:41;14.90;1.40
2174;DHT22;1093;51.424;11.764;2023-04-24T07:22:07;14.90;1.40
2174;DHT22;1093;51.424;11.764;2023-04-24T07:24:35;14.90;1.40
2174;DHT22;1093;51.424;11.764;2023-04-24T07:27:02;15.00;1.40
2174;DHT22;1093;51.424;11.764;2023-04-24T07:29:29;15.10;1.40
2174;DHT22;1093;51.424;11.764;2023-04-24T07:31:56;15.20;1.40
2174;DHT22;1093;51.424;11.764;2023-04-24T07:34:22;15.20;1.40
2174;DHT22;1093;51.424;11.764;2023-04-24T07:36:49;15.20;1.40
2174;DHT22;1093;51.424;11.764;2023-04-24T07:39:16;15.30;1.40
2174;DHT22;1093;51.424;11.764;2023-04-24T07:41:44;15.30;1.40
2174;DHT22;1093;51.424;11.764;2023-04-24T07:44:11;15.30;1.40
2174;DHT22;1093;51.424;11.764;2023-04-24T07:46:37;15.30;1.40
2174;DHT22;1093;51.424;11.764;2023-04-24T07:49:04;15.20;1.40
2174;DHT22;1093;51.424;11.764;2023-04-24T07:51:31;15.30;1.40
2174;DHT22;1093;51.424;11.764;2023-04-24T07:53:59;15.40;1.40
2174;DHT22;1093;51.424;11.764;2023-04-24T07:56:25;15.40;1.40
2174;DHT22;1093;51.424;11.764;2023-04-24T07:58:54;15.40;1.40
2174;DHT22;1093;51.424;11.764;2023-04-24T08:01:20;15.50;1.40
2174;DHT22;1093;51.424;11.764;2023-04-24T08:03:47;15.50;1.40
2174;DHT22;1093;51.424;11.764;2023-04-24T08:06:14;15.60;1.40
2174;DHT22;1093;51.424;11.764;2023-04-24T08:08:40;15.70;1.40
2174;DHT22;1093;51.424;11.764;2023-04-24T08:11:07;15.80;1.40
2174;DHT22;1093;51.424;11.764;2023-04-24T08:13:34;15.90;1.40
2174;DHT22;1093;51.424;11.764;2023-04-24T08:16:02;16.10;1.40
2174;DHT22;1093;51.424;11.764;2023-04-24T08:18:29;16.10;1.40
2174;DHT22;1093;51.424;11.764;2023-04-24T08:20:55;16.30;1.40
2174;DHT22;1093;51.424;11.764;2023-04-24T08:23:26;16.40;1.40
2174;DHT22;1093;51.424;11.764;2023-04-24T08:25:54;16.40;1.40
2174;DHT22;1093;51.424;11.764;2023-04-24T08:28:21;16.60;1.40
2174;DHT22;1093;51.424;11.764;2023-04-24T08:30:48;16.60;1.40
2174;DHT22;1093;51.424;11.764;2023-04-24T08:33:21;16.70;1.40
2174;DHT22;1093;51.424;11.764;2023-04-24T08:35:48;16.70;1.40
2174;DHT22;1093;51.424;11.764;2023-04-24T08:38:15;16.70;1.40
2174;DHT22;1093;51.424;11.764;2023-04-24T08:40:42;16.70;1.40
2174;DHT22;1093;51.424;11.764;2023-04-24T08:43:11;16.60;1.40
2174;DHT22;1093;51.424;11.764;2023-04-24T08:45:39;16.70;1.40
2174;DHT22;1093;51.424;11.764;2023-04-24T08:48:07;16.90;1.40
2174;DHT22;1093;51.424;11.764;2023-04-24T08:50:35;17.00;1.40
2174;DHT22;1093;51.424;11.764;2023-04-24T08:53:04;17.20;1.40
2174;DHT22;1093;51.424;11.764;2023-04-24T08:55:32;17.30;1.40
2174;DHT22;1093;51.424;11.764;2023-04-24T08:58:01;17.50;1.40
2174;DHT22;1093;51.424;11.764;2023-04-24T09:00:28;17.60;1.40
2174;DHT22;1093;51.424;11.764;2023-04-24T09:02:55;17.80;1.40
2174;DHT22;1093;51.424;11.764;2023-04-24T09:05:23;17.90;1.40
2174;DHT22;1093;51.424;11.764;2023-04-24T09:07:54;18.10;1.40
2174;DHT22;1093;51.424;11.764;2023-04-24T09:10:23;18.30;1.40
2174;DHT22;1093;51.424;11.764;2023-04-24T09:12:50;18.50;1.40
2174;DHT22;1093;51.424;11.764;2023-04-24T09:15:18;18.70;1.40
2174;DHT22;1093;51.424;11.764;2023-04-24T09:17:45;18.80;1.40
2174;DHT22;1093;51.424;11.764;2023-04-24T09:20:13;19.00;1.40
2174;DHT22;1093;51.424;11.764;2023-04-24T09:22:39;18.90;1.40
2174;DHT22;1093;51.424;11.764;2023-04-24T09:25:09;18.90;1.40
2174;DHT22;1093;51.424;11.764;2023-04-24T09:27:41;18.90;1.40
2174;DHT22;1093;51.424;11.764;2023-04-24T09:30:10;18.90;1.40
2174;DHT22;1093;51.424;11.764;2023-04-24T09:32:37;19.00;1.40
2174;DHT22;1093;51.424;11.764;2023-04-24T09:35:09;19.20;1.40
2174;DHT22;1093;51.424;11.764;2023-04-24T09:37:37;19.10;1.40
2174;DHT22;1093;51.424;11.764;2023-04-24T09:40:14;19.00;1.40
2174;DHT22;1093;51.424;11.764;2023-04-24T09:42:44;19.00;1.40
2174;DHT22;1093;51.424;11.764;2023-04-24T09:45:11;19.20;1.40
2174;DHT22;1093;51.424;11.764;2023-04-24T09:47:38;19.20;1.40
2174;DHT22;1093;51.424;11.764;2023-04-24T09:50:13;19.30;1.40
2174;DHT22;1093;51.424;11.764;2023-04-24T09:52:41;19.40;1.40
2174;DHT22;1093;51.424;11.764;2023-04-24T09:55:18;19.30;1.40
2174;DHT22;1093;51.424;11.764;2023-04-24T09:57:53;18.80;1.40
2174;DHT22;1093;51.424;11.764;2023-04-24T10:00:25;18.70;1.40
2174;DHT22;1093;51.424;11.764;2023-04-24T10:02:59;18.60;1.40
2174;DHT22;1093;51.424;11.764;2023-04-24T10:05:30;18.50;1.40
2174;DHT22;1093;51.424;11.764;2023-04-24T10:08:00;18.40;1.40
2174;DHT22;1093;51.424;11.764;2023-04-24T10:10:28;18.30;1.40
2174;DHT22;1093;51.424;11.764;2023-04-24T10:12:56;18.20;1.40
2174;DHT22;1093;51.424;11.764;2023-04-24T10:15:23;18.20;1.40
2174;DHT22;1093;51.424;11.764;2023-04-24T10:17:51;18.30;1.40
2174;DHT22;1093;51.424;11.764;2023-04-24T10:20:20;18.30;1.40
2174;DHT22;1093;51.424;11.764;2023-04-24T10:22:48;18.30;1.40
2174;DHT22;1093;51.424;11.764;2023-04-24T10:25:18;18.40;1.40
2174;DHT22;1093;51.424;11.764;2023-04-24T10:27:47;18.50;1.40
2174;DHT22;1093;51.424;11.764;2023-04-24T10:30:15;18.50;1.40
2174;DHT22;1093;51.424;11.764;2023-04-24T10:32:42;18.40;1.40
2174;DHT22;1093;51.424;11.764;2023-04-24T10:35:09;18.30;1.40
2174;DHT22;1093;51.424;11.764;2023-04-24T10:37:39;18.40;1.40
2174;DHT22;1093;51.424;11.764;2023-04-24T10:40:07;18.30;1.40
2174;DHT22;1093;51.424;11.764;2023-04-24T10:42:35;18.30;1.40
2174;DHT22;1093;51.424;11.764;2023-04-24T10:45:16;18.20;1.40
2174;DHT22;1093;51.424;11.764;2023-04-24T10:47:51;18.20;1.40
2174;DHT22;1093;51.424;11.764;2023-04-24T10:50:18;18.30;1.40
2174;DHT22;1093;51.424;11.764;2023-04-24T10:52:45;18.30;1.40
2174;DHT22;1093;51.424;11.764;2023-04-24T10:55:12;18.20;1.40
2174;DHT22;1093;51.424;11.764;2023-04-24T10:58:03;18.20;1.40
2174;DHT22;1093;51.424;11.764;2023-04-24T11:00:31;18.20;1.40
2174;DHT22;1093;51.424;11.764;2023-04-24T11:02:58;18.30;1.40
2174;DHT22;1093;51.424;11.764;2023-04-24T11:05:49;18.50;1.40
2174;DHT22;1093;51.424;11.764;2023-04-24T11:08:29;18.50;1.40
2174;DHT22;1093;51.424;11.764;2023-04-24T11:10:58;18.60;1.40
2174;DHT22;1093;51.424;11.764;2023-04-24T11:13:27;18.70;1.40
2174;DHT22;1093;51.424;11.764;2023-04-24T11:16:14;18.70;1.40
2174;DHT22;1093;51.424;11.764;2023-04-24T11:18:42;18.60;1.40
2174;DHT22;1093;51.424;11.764;2023-04-24T11:21:12;18.40;1.40
2174;DHT22;1093;51.424;11.764;2023-04-24T11:23:39;18.40;1.40
2174;DHT22;1093;51.424;11.764;2023-04-24T11:26:12;18.40;1.40
2174;DHT22;1093;51.424;11.764;2023-04-24T11:28:47;18.30;1.40
2174;DHT22;1093;51.424;11.764;2023-04-24T11:31:37;18.20;1.40
2174;DHT22;1093;51.424;11.764;2023-04-24T11:34:08;18.20;1.40
2174;DHT22;1093;51.424;11.764;2023-04-24T11:36:36;18.20;1.40
2174;DHT22;1093;51.424;11.764;2023-04-24T11:39:03;18.30;1.40
2174;DHT22;1093;51.424;11.764;2023-04-24T11:41:30;18.40;1.40
2174;DHT22;1093;51.424;11.764;2023-04-24T11:43:57;18.40;1.40
2174;DHT22;1093;51.424;11.764;2023-04-24T11:46:27;18.30;1.40
2174;DHT22;1093;51.424;11.764;2023-04-24T11:48:56;18.30;1.40
2174;DHT22;1093;51.424;11.764;2023-04-24T11:51:23;18.20;1.40
2174;DHT22;1093;51.424;11.764;2023-04-24T11:53:50;18.10;1.40
2174;DHT22;1093;51.424;11.764;2023-04-24T11:56:17;18.00;1.40
2174;DHT22;1093;51.424;11.764;2023-04-24T11:58:45;18.00;1.40
2174;DHT22;1093;51.424;11.764;2023-04-24T12:01:12;17.90;1.40
2174;DHT22;1093;51.424;11.764;2023-04-24T12:03:39;18.00;1.40
2174;DHT22;1093;51.424;11.764;2023-04-24T12:06:11;18.00;1.40
2174;DHT22;1093;51.424;11.764;2023-04-24T12:08:38;18.00;1.40
2174;DHT22;1093;51.424;11.764;2023-04-24T12:11:06;17.90;1.40
2174;DHT22;1093;51.424;11.764;2023-04-24T12:13:33;17.80;1.40
2174;DHT22;1093;51.424;11.764;2023-04-24T12:16:02;17.70;1.40
2174;DHT22;1093;51.424;11.764;2023-04-24T12:18:29;17.80;1.40
2174;DHT22;1093;51.424;11.764;2023-04-24T12:21:16;17.50;1.40
2174;DHT22;1093;51.424;11.764;2023-04-24T12:23:43;17.50;1.40
2174;DHT22;1093;51.424;11.764;2023-04-24T12:26:10;17.50;1.40
2174;DHT22;1093;51.424;11.764;2023-04-24T12:28:38;17.50;1.40
2174;DHT22;1093;51.424;11.764;2023-04-24T12:31:06;17.40;1.40
2174;DHT22;1093;51.424;11.764;2023-04-24T12:33:34;17.40;1.40
2174;DHT22;1093;51.424;11.764;2023-04-24T12:36:01;17.50;1.40
2174;DHT22;1093;51.424;11.764;2023-04-24T12:38:29;17.60;1.40
2174;DHT22;1093;51.424;11.764;2023-04-24T12:41:03;17.70;1.40
2174;DHT22;1093;51.424;11.764;2023-04-24T12:43:30;17.70;1.40
2174;DHT22;1093;51.424;11.764;2023-04-24T12:45:57;17.80;1.40
2174;DHT22;1093;51.424;11.764;2023-04-24T12:48:24;17.80;1.40
2174;DHT22;1093;51.424;11.764;2023-04-24T12:50:51;17.80;1.40
2174;DHT22;1093;51.424;11.764;2023-04-24T12:53:18;17.90;1.40
2174;DHT22;1093;51.424;11.764;2023-04-24T12:55:46;18.00;1.40
2174;DHT22;1093;51.424;11.764;2023-04-24T12:58:18;18.10;1.40
2174;DHT22;1093;51.424;11.764;2023-04-24T13:00:45;18.00;1.40
2174;DHT22;1093;51.424;11.764;2023-04-24T13:03:12;18.00;1.40
2174;DHT22;1093;51.424;11.764;2023-04-24T13:05:39;18.10;1.40
2174;DHT22;1093;51.424;11.764;2023-04-24T13:08:06;18.10;1.40
2174;DHT22;1093;51.424;11.764;2023-04-24T13:10:33;18.10;1.40
2174;DHT22;1093;51.424;11.764;2023-04-24T13:13:02;18.10;1.40
2174;DHT22;1093;51.424;11.764;2023-04-24T13:15:30;18.00;1.40
2174;DHT22;1093;51.424;11.764;2023-04-24T13:17:56;18.00;1.40
2174;DHT22;1093;51.424;11.764;2023-04-24T13:20:23;18.00;1.40
2174;DHT22;1093;51.424;11.764;2023-04-24T13:22:50;18.00;1.40
2174;DHT22;1093;51.424;11.764;2023-04-24T13:25:17;17.90;1.40
2174;DHT22;1093;51.424;11.764;2023-04-24T13:27:44;17.80;1.40
2174;DHT22;1093;51.424;11.764;2023-04-24T13:30:13;17.60;1.40
2174;DHT22;1093;51.424;11.764;2023-04-24T13:32:39;17.50;1.40
2174;DHT22;1093;51.424;11.764;2023-04-24T13:35:07;17.40;1.40
2174;DHT22;1093;51.424;11.764;2023-04-24T13:37:33;17.40;1.40
2174;DHT22;1093;51.424;11.764;2023-04-24T13:40:00;17.40;1.40
2174;DHT22;1093;51.424;11.764;2023-04-24T13:42:27;17.40;1.40
2174;DHT22;1093;51.424;11.764;2023-04-24T13:44:54;17.50;1.40
2174;DHT22;1093;51.424;11.764;2023-04-24T13:47:22;17.60;1.40
2174;DHT22;1093;51.424;11.764;2023-04-24T13:49:49;17.60;1.40
2174;DHT22;1093;51.424;11.764;2023-04-24T13:52:15;17.60;1.40
2174;DHT22;1093;51.424;11.764;2023-04-24T13:54:42;17.60;1.40
2174;DHT22;1093;51.424;11.764;2023-04-24T13:57:09;17.50;1.40
2174;DHT22;1093;51.424;11.764;2023-04-24T13:59:35;17.40;1.40
2174;DHT22;1093;51.424;11.764;2023-04-24T14:02:02;17.50;1.40
2174;DHT22;1093;51.424;11.764;2023-04-24T14:04:30;17.40;1.40
2174;DHT22;1093;51.424;11.764;2023-04-24T14:06:57;17.40;1.40
2174;DHT22;1093;51.424;11.764;2023-04-24T14:09:23;17.50;1.40
2174;DHT22;1093;51.424;11.764;2023-04-24T14:11:51;17.40;1.40
2174;DHT22;1093;51.424;11.764;2023-04-24T14:14:18;17.40;1.40
2174;DHT22;1093;51.424;11.764;2023-04-24T14:16:45;17.40;1.40
2174;DHT22;1093;51.424;11.764;2023-04-24T14:19:13;17.40;1.40
2174;DHT22;1093;51.424;11.764;2023-04-24T14:21:41;17.40;1.40
2174;DHT22;1093;51.424;11.764;2023-04-24T14:24:08;17.40;1.40
2174;DHT22;1093;51.424;11.764;2023-04-24T14:26:35;17.20;1.40
2174;DHT22;1093;51.424;11.764;2023-04-24T14:29:01;17.20;1.40
2174;DHT22;1093;51.424;11.764;2023-04-24T14:31:29;17.10;1.40
2174;DHT22;1093;51.424;11.764;2023-04-24T14:33:56;17.00;1.40
2174;DHT22;1093;51.424;11.764;2023-04-24T14:36:24;16.90;1.40
2174;DHT22;1093;51.424;11.764;2023-04-24T14:38:52;16.80;1.40
2174;DHT22;1093;51.424;11.764;2023-04-24T14:41:18;16.80;1.40
2174;DHT22;1093;51.424;11.764;2023-04-24T14:43:45;16.70;1.40
2174;DHT22;1093;51.424;11.764;2023-04-24T14:46:12;16.70;1.40
2174;DHT22;1093;51.424;11.764;2023-04-24T14:48:39;16.80;1.40
2174;DHT22;1093;51.424;11.764;2023-04-24T14:51:06;16.70;1.40
2174;DHT22;1093;51.424;11.764;2023-04-24T14:53:33;16.60;1.40
2174;DHT22;1093;51.424;11.764;2023-04-24T14:56:02;16.50;1.40
2174;DHT22;1093;51.424;11.764;2023-04-24T14:58:28;16.50;1.40
2174;DHT22;1093;51.424;11.764;2023-04-24T15:00:55;16.50;1.40
2174;DHT22;1093;51.424;11.764;2023-04-24T15:03:22;16.30;1.40
2174;DHT22;1093;51.424;11.764;2023-04-24T15:05:49;16.20;1.40
2174;DHT22;1093;51.424;11.764;2023-04-24T15:08:16;16.10;1.40
2174;DHT22;1093;51.424;11.764;2023-04-24T15:10:44;16.10;1.40
2174;DHT22;1093;51.424;11.764;2023-04-24T15:13:12;16.10;1.40
2174;DHT22;1093;51.424;11.764;2023-04-24T15:15:39;16.00;1.40
2174;DHT22;1093;51.424;11.764;2023-04-24T15:18:07;15.90;1.40
2174;DHT22;1093;51.424;11.764;2023-04-24T15:20:36;15.90;1.40
2174;DHT22;1093;51.424;11.764;2023-04-24T15:23:04;15.70;1.40
2174;DHT22;1093;51.424;11.764;2023-04-24T15:25:31;15.70;1.40
2174;DHT22;1093;51.424;11.764;2023-04-24T15:27:58;15.60;1.40
2174;DHT22;1093;51.424;11.764;2023-04-24T15:30:26;15.50;1.40
2174;DHT22;1093;51.424;11.764;2023-04-24T15:32:53;15.50;1.40
2174;DHT22;1093;51.424;11.764;2023-04-24T15:35:20;15.50;1.40
2174;DHT22;1093;51.424;11.764;2023-04-24T15:37:47;15.50;1.40
2174;DHT22;1093;51.424;11.764;2023-04-24T15:40:14;15.40;1.40
2174;DHT22;1093;51.424;11.764;2023-04-24T15:42:42;15.30;1.40
2174;DHT22;1093;51.424;11.764;2023-04-24T15:45:10;15.30;1.40
2174;DHT22;1093;51.424;11.764;2023-04-24T15:47:38;15.20;1.40
2174;DHT22;1093;51.424;11.764;2023-04-24T15:50:07;15.10;1.40
2174;DHT22;1093;51.424;11.764;2023-04-24T15:52:35;15.10;1.40
2174;DHT22;1093;51.424;11.764;2023-04-24T15:55:03;15.00;1.40
2174;DHT22;1093;51.424;11.764;2023-04-24T15:57:30;14.90;1.40
2174;DHT22;1093;51.424;11.764;2023-04-24T15:59:57;14.80;1.40
2174;DHT22;1093;51.424;11.764;2023-04-24T16:02:24;14.80;1.40
2174;DHT22;1093;51.424;11.764;2023-04-24T16:04:52;14.80;1.40